createdAt,value
2022-11-21T00:00:23.443Z,100.00
2022-11-21T00:02:51.730Z,100.00
2022-11-21T00:05:20.578Z,100.00
2022-11-21T00:07:49.892Z,100.00
2022-11-21T00:10:18.379Z,100.00
2022-11-21T00:12:48.043Z,100.00
2022-11-21T00:15:16.311Z,100.00
2022-11-21T00:17:44.597Z,100.00
2022-11-21T00:20:13.383Z,100.00
2022-11-21T00:22:41.629Z,100.00
2022-11-21T00:25:10.860Z,100.00
2022-11-21T00:27:39.301Z,100.00
2022-11-21T00:30:11.262Z,100.00
2022-11-21T00:32:39.734Z,100.00
2022-11-21T00:35:08.690Z,100.00
2022-11-21T00:37:36.982Z,100.00
2022-11-21T00:40:05.820Z,100.00
2022-11-21T00:42:34.203Z,100.00
2022-11-21T00:45:02.435Z,100.00
2022-11-21T00:47:32.071Z,100.00
2022-11-21T00:50:00.264Z,100.00
2022-11-21T00:52:28.427Z,100.00
2022-11-21T00:54:57.022Z,100.00
2022-11-21T00:57:25.246Z,100.00
2022-11-21T00:59:53.466Z,100.00
2022-11-21T01:02:21.713Z,100.00
2022-11-21T01:04:51.300Z,100.00
2022-11-21T01:07:19.590Z,100.00
2022-11-21T01:09:48.358Z,100.00
2022-11-21T01:12:16.672Z,100.00
2022-11-21T01:14:44.898Z,97.33
2022-11-21T01:17:13.130Z,96.67
2022-11-21T01:19:41.453Z,100.00
2022-11-21T01:22:11.177Z,92.83
2022-11-21T01:24:39.457Z,97.69
2022-11-21T01:27:07.717Z,100.00
2022-11-21T01:29:36.020Z,100.00
2022-11-21T01:32:04.297Z,99.14
2022-11-21T01:34:32.516Z,88.55
2022-11-21T01:37:01.414Z,83.21
2022-11-21T01:39:31.001Z,83.77
2022-11-21T01:41:59.250Z,82.69
2022-11-21T01:44:29.478Z,83.51
2022-11-21T01:46:57.949Z,78.93
2022-11-21T01:49:28.663Z,83.69
2022-11-21T01:52:04.055Z,86.99
2022-11-21T01:54:38.472Z,85.17
2022-11-21T01:57:11.532Z,84.70
2022-11-21T01:59:45.818Z,80.06
2022-11-21T02:02:17.141Z,79.36
2022-11-21T02:04:46.114Z,78.97
2022-11-21T02:07:16.280Z,81.56
2022-11-21T02:09:50.838Z,82.54
2022-11-21T02:12:26.326Z,84.76
2022-11-21T02:14:56.692Z,83.69
2022-11-21T02:17:24.989Z,86.25
2022-11-21T02:19:57.070Z,85.29
2022-11-21T02:22:34.157Z,87.37
2022-11-21T02:25:07.012Z,85.67
2022-11-21T02:27:35.871Z,85.50
2022-11-21T02:30:07.485Z,86.21
2022-11-21T02:32:38.341Z,88.66
2022-11-21T02:35:07.870Z,88.69
2022-11-21T02:37:37.750Z,90.46
2022-11-21T02:40:11.638Z,91.09
2022-11-21T02:42:50.104Z,88.05
2022-11-21T02:45:26.397Z,86.33
2022-11-21T02:48:00.846Z,87.41
2022-11-21T02:50:34.122Z,86.17
2022-11-21T02:53:02.745Z,84.58
2022-11-21T02:55:32.526Z,83.26
2022-11-21T02:58:04.973Z,82.92
2022-11-21T03:00:34.291Z,82.00
2022-11-21T03:03:03.206Z,82.88
2022-11-21T03:05:31.639Z,80.79
2022-11-21T03:07:59.940Z,81.46
2022-11-21T03:10:28.600Z,78.44
2022-11-21T03:13:01.901Z,77.37
2022-11-21T03:15:31.679Z,78.67
2022-11-21T03:18:01.298Z,76.47
2022-11-21T03:20:29.733Z,75.06
2022-11-21T03:22:58.028Z,75.13
2022-11-21T03:25:26.342Z,75.23
2022-11-21T03:27:55.344Z,73.60
2022-11-21T03:30:26.384Z,73.00
2022-11-21T03:32:56.829Z,74.18
2022-11-21T03:35:25.269Z,73.57
2022-11-21T03:37:53.607Z,72.60
2022-11-21T03:40:21.853Z,71.99
2022-11-21T03:42:50.044Z,71.80
2022-11-21T03:45:18.390Z,72.03
2022-11-21T03:47:48.033Z,73.18
2022-11-21T03:50:19.127Z,71.41
2022-11-21T03:52:47.378Z,71.09
2022-11-21T03:55:15.733Z,70.66
2022-11-21T03:57:44.047Z,75.05
2022-11-21T04:00:13.879Z,76.96
2022-11-21T04:02:42.090Z,78.12
2022-11-21T04:05:11.896Z,78.83
2022-11-21T04:07:40.099Z,80.92
2022-11-21T04:10:09.040Z,82.65
2022-11-21T04:12:37.267Z,80.58
2022-11-21T04:15:10.629Z,79.92
2022-11-21T04:17:41.586Z,79.61
2022-11-21T04:20:12.571Z,80.19
2022-11-21T04:22:40.813Z,78.16
2022-11-21T04:25:09.795Z,77.17
2022-11-21T04:27:38.126Z,78.15
2022-11-21T04:30:07.852Z,76.61
2022-11-21T04:32:36.107Z,73.96
2022-11-21T04:35:05.895Z,73.97
2022-11-21T04:37:35.617Z,73.75
2022-11-21T04:40:03.941Z,72.25
2022-11-21T04:42:32.136Z,72.20
2022-11-21T04:45:00.381Z,73.04
2022-11-21T04:47:28.638Z,73.18
2022-11-21T04:49:56.871Z,76.03
2022-11-21T04:52:25.084Z,77.48
2022-11-21T04:54:54.827Z,77.62
2022-11-21T04:57:23.074Z,79.55
2022-11-21T04:59:51.405Z,81.41
2022-11-21T05:02:19.711Z,81.97
2022-11-21T05:04:48.231Z,81.74
2022-11-21T05:07:17.085Z,80.23
2022-11-21T05:09:45.376Z,78.13
2022-11-21T05:12:32.339Z,79.70
2022-11-21T05:15:00.569Z,79.42
2022-11-21T05:17:29.952Z,79.10
2022-11-21T05:19:58.253Z,80.33
2022-11-21T05:22:26.578Z,81.91
2022-11-21T05:24:54.793Z,83.95
2022-11-21T05:27:24.508Z,86.78
2022-11-21T05:29:53.399Z,82.42
2022-11-21T05:32:21.704Z,83.65
2022-11-21T05:34:49.911Z,85.88
2022-11-21T05:37:18.305Z,91.85
2022-11-21T05:39:46.527Z,99.57
2022-11-21T05:42:14.756Z,98.14
2022-11-21T05:44:43.308Z,100.00
2022-11-21T05:47:11.588Z,100.00
2022-11-21T05:49:39.848Z,100.00
2022-11-21T05:52:08.158Z,100.00
2022-11-21T05:54:36.399Z,100.00
2022-11-21T05:57:04.679Z,100.00
2022-11-21T05:59:32.889Z,100.00
2022-11-21T06:02:16.293Z,100.00
2022-11-21T06:04:44.530Z,100.00
2022-11-21T06:07:12.854Z,100.00
2022-11-21T06:09:41.091Z,100.00
2022-11-21T06:12:09.354Z,100.00
2022-11-21T06:14:37.530Z,100.00
2022-11-21T06:17:07.180Z,100.00
2022-11-21T06:19:35.389Z,100.00
2022-11-21T06:22:03.587Z,100.00
2022-11-21T06:24:31.799Z,100.00
2022-11-21T06:27:00.479Z,100.00
2022-11-21T06:29:28.758Z,100.00
2022-11-21T06:31:57.056Z,100.00
2022-11-21T06:34:29.039Z,100.00
2022-11-21T06:36:58.059Z,100.00
2022-11-21T06:39:26.675Z,100.00
2022-11-21T06:41:55.178Z,100.00
2022-11-21T06:44:23.486Z,100.00
2022-11-21T06:46:51.965Z,100.00
2022-11-21T06:49:22.398Z,100.00
2022-11-21T06:51:52.818Z,100.00
2022-11-21T06:54:21.025Z,100.00
2022-11-21T06:56:49.746Z,100.00
2022-11-21T06:59:18.175Z,100.00
2022-11-21T07:01:46.374Z,100.00
2022-11-21T07:04:14.953Z,100.00
2022-11-21T07:06:43.260Z,100.00
2022-11-21T07:12:21.500Z,100.00
2022-11-21T07:14:48.772Z,100.00
2022-11-21T07:17:17.080Z,100.00
2022-11-21T07:19:45.337Z,100.00
2022-11-21T07:22:13.545Z,100.00
2022-11-21T07:24:43.306Z,100.00
2022-11-21T07:27:11.481Z,100.00
2022-11-21T07:29:39.865Z,100.00
2022-11-21T07:32:08.097Z,100.00
2022-11-21T07:34:36.647Z,100.00
2022-11-21T07:37:05.440Z,100.00
2022-11-21T07:39:33.741Z,100.00
2022-11-21T07:42:03.382Z,100.00
2022-11-21T07:44:31.657Z,100.00
2022-11-21T07:46:59.876Z,100.00
2022-11-21T07:49:28.471Z,100.00
2022-11-21T07:51:56.919Z,100.00
2022-11-21T07:54:25.169Z,100.00
2022-11-21T07:56:53.462Z,100.00
2022-11-21T07:59:23.062Z,100.00
2022-11-21T08:01:52.799Z,100.00
2022-11-21T08:04:21.016Z,100.00
2022-11-21T08:06:49.180Z,100.00
2022-11-21T08:09:17.417Z,100.00
2022-11-21T08:11:45.760Z,100.00
2022-11-21T08:14:14.423Z,100.00
2022-11-21T08:16:44.014Z,99.96
2022-11-21T08:19:12.221Z,100.00
2022-11-21T08:21:40.413Z,90.05
2022-11-21T08:24:13.603Z,88.28
2022-11-21T08:26:42.411Z,89.02
2022-11-21T08:29:11.113Z,89.35
2022-11-21T08:31:40.664Z,83.04
2022-11-21T08:34:14.446Z,79.75
2022-11-21T08:36:43.107Z,73.39
2022-11-21T08:39:11.368Z,73.45
2022-11-21T08:41:57.148Z,65.19
2022-11-21T08:44:25.432Z,67.59
2022-11-21T08:46:53.681Z,64.06
2022-11-21T08:49:23.304Z,58.17
2022-11-21T08:51:52.074Z,55.25
2022-11-21T08:54:21.372Z,53.61
2022-11-21T08:56:50.055Z,51.56
2022-11-21T08:59:19.017Z,47.99
2022-11-21T09:01:47.319Z,47.03
2022-11-21T09:04:15.863Z,46.98
2022-11-21T09:06:45.532Z,45.68
2022-11-21T09:09:13.963Z,46.53
2022-11-21T09:11:42.203Z,46.10
2022-11-21T09:14:28.171Z,45.23
2022-11-21T09:17:14.196Z,43.66
2022-11-21T09:19:42.457Z,45.99
2022-11-21T09:22:12.183Z,47.66
2022-11-21T09:24:40.550Z,48.48
2022-11-21T09:27:08.769Z,45.31
2022-11-21T09:29:37.035Z,47.17
2022-11-21T09:32:05.608Z,46.35
2022-11-21T09:34:33.871Z,46.37
2022-11-21T09:37:02.139Z,45.94
2022-11-21T09:39:31.866Z,46.21
2022-11-21T09:42:15.482Z,48.16
2022-11-21T09:45:16.424Z,50.62
2022-11-21T09:47:46.939Z,52.80
2022-11-21T09:50:30.661Z,51.43
2022-11-21T09:53:03.191Z,55.39
2022-11-21T09:55:43.152Z,51.88
2022-11-21T09:58:21.839Z,52.10
2022-11-21T10:00:53.165Z,52.25
2022-11-21T10:03:25.467Z,53.11
2022-11-21T10:05:57.423Z,53.78
2022-11-21T10:08:35.385Z,52.50
2022-11-21T10:11:20.175Z,51.68
2022-11-21T10:13:59.059Z,51.86
2022-11-21T10:16:39.212Z,53.31
2022-11-21T10:19:23.006Z,51.54
2022-11-21T10:22:09.984Z,53.35
2022-11-21T10:24:51.200Z,49.91
2022-11-21T10:27:28.502Z,50.78
2022-11-21T10:30:01.622Z,52.76
2022-11-21T10:32:34.300Z,52.07
2022-11-21T10:35:13.931Z,53.18
2022-11-21T10:37:48.374Z,53.38
2022-11-21T10:40:25.221Z,51.46
2022-11-21T10:42:58.665Z,52.18
2022-11-21T10:45:26.047Z,52.07
2022-11-21T10:47:54.781Z,52.04
2022-11-21T10:50:51.550Z,54.90
2022-11-21T10:53:40.372Z,55.72
2022-11-21T10:56:13.302Z,59.85
2022-11-21T10:58:48.341Z,55.64
2022-11-21T11:01:25.467Z,56.16
2022-11-21T11:04:42.868Z,58.39
2022-11-21T11:07:23.167Z,56.60
2022-11-21T11:09:52.653Z,52.08
2022-11-21T11:12:46.061Z,51.89
2022-11-21T11:15:21.723Z,51.96
2022-11-21T11:17:56.509Z,53.26
2022-11-21T11:20:34.862Z,52.30
2022-11-21T11:23:17.718Z,53.63
2022-11-21T11:25:50.721Z,53.62
2022-11-21T11:28:20.085Z,54.13
2022-11-21T11:30:51.717Z,53.01
2022-11-21T11:33:34.826Z,52.98
2022-11-21T11:36:15.316Z,51.91
2022-11-21T11:38:53.781Z,51.07
2022-11-21T11:41:57.737Z,51.76
2022-11-21T11:44:53.492Z,49.89
2022-11-21T11:47:31.732Z,50.54
2022-11-21T11:50:12.445Z,49.52
2022-11-21T11:52:49.584Z,51.32
2022-11-21T11:55:23.207Z,51.78
2022-11-21T11:57:55.945Z,51.60
2022-11-21T12:00:40.766Z,52.12
2022-11-21T12:03:16.304Z,52.15
2022-11-21T12:05:56.875Z,49.93
2022-11-21T12:08:41.461Z,49.02
2022-11-21T12:11:39.454Z,50.11
2022-11-21T12:14:37.541Z,51.63
2022-11-21T12:17:07.904Z,50.37
2022-11-21T12:19:38.651Z,46.82
2022-11-21T12:22:08.958Z,46.02
2022-11-21T12:24:42.793Z,47.46
2022-11-21T12:27:23.177Z,46.70
2022-11-21T12:30:16.489Z,46.65
2022-11-21T12:32:57.286Z,47.08
2022-11-21T12:35:48.501Z,48.96
2022-11-21T12:38:42.037Z,48.92
2022-11-21T12:41:37.301Z,50.06
2022-11-21T12:44:19.997Z,50.23
2022-11-21T12:46:58.861Z,49.96
2022-11-21T12:49:54.749Z,51.21
2022-11-21T12:52:49.418Z,50.74
2022-11-21T12:55:35.147Z,51.45
2022-11-21T12:58:14.517Z,51.79
2022-11-21T13:01:01.835Z,52.22
2022-11-21T13:03:41.090Z,50.84
2022-11-21T13:06:17.907Z,50.81
2022-11-21T13:08:49.672Z,49.87
2022-11-21T13:11:48.852Z,52.82
2022-11-21T13:14:26.220Z,51.24
2022-11-21T13:17:05.422Z,51.89
2022-11-21T13:19:43.634Z,50.36
2022-11-21T13:22:45.202Z,51.34
2022-11-21T13:25:35.340Z,49.72
2022-11-21T13:28:30.248Z,49.52
2022-11-21T13:31:00.824Z,49.91
2022-11-21T13:33:53.240Z,49.03
2022-11-21T13:36:39.114Z,49.14
2022-11-21T13:39:35.799Z,48.32
2022-11-21T13:42:30.840Z,48.69
2022-11-21T13:45:00.105Z,48.52
2022-11-21T13:47:48.861Z,49.27
2022-11-21T13:50:30.750Z,49.65
2022-11-21T13:53:08.030Z,50.14
2022-11-21T13:55:58.504Z,50.82
2022-11-21T13:58:50.527Z,53.31
2022-11-21T14:01:41.023Z,52.95
2022-11-21T14:04:40.409Z,51.35
2022-11-21T14:07:31.170Z,52.16
2022-11-21T14:10:02.413Z,52.78
2022-11-21T14:12:38.284Z,53.30
2022-11-21T14:15:23.019Z,53.42
2022-11-21T14:17:54.885Z,54.99
2022-11-21T14:20:26.843Z,55.83
2022-11-21T14:23:01.629Z,56.25
2022-11-21T14:25:38.472Z,56.68
2022-11-21T14:28:11.477Z,56.10
2022-11-21T14:30:42.910Z,55.68
2022-11-21T14:33:28.782Z,56.35
2022-11-21T14:36:01.293Z,56.00
2022-11-21T14:38:31.515Z,57.45
2022-11-21T14:41:34.358Z,58.09
2022-11-21T14:44:20.754Z,58.23
2022-11-21T14:47:09.662Z,59.01
2022-11-21T14:49:37.868Z,59.30
2022-11-21T14:52:19.918Z,63.82
2022-11-21T14:55:22.836Z,62.78
2022-11-21T14:57:43.863Z,63.60
2022-11-21T15:03:06.615Z,61.66
2022-11-21T15:11:16.863Z,62.48
2022-11-21T15:16:35.924Z,62.15
2022-11-21T15:19:10.202Z,62.21
2022-11-21T15:21:38.727Z,60.96
2022-11-21T15:24:18.685Z,62.14
2022-11-21T15:26:47.324Z,67.10
2022-11-21T15:29:23.186Z,77.56
2022-11-21T15:32:16.584Z,63.63
2022-11-21T15:34:47.251Z,64.35
2022-11-21T15:37:18.882Z,64.63
2022-11-21T15:39:50.070Z,65.90
2022-11-21T15:42:37.771Z,64.52
2022-11-21T15:45:24.038Z,61.42
2022-11-21T15:47:52.820Z,63.93
2022-11-21T15:50:24.383Z,64.58
2022-11-21T15:52:54.770Z,64.10
2022-11-21T15:55:26.120Z,64.94
2022-11-21T15:57:54.371Z,63.19
2022-11-21T16:00:23.088Z,61.73
2022-11-21T16:02:51.933Z,60.92
2022-11-21T16:05:20.256Z,61.98
2022-11-21T16:07:49.943Z,64.92
2022-11-21T16:10:24.258Z,61.92
2022-11-21T16:12:55.728Z,62.37
2022-11-21T16:15:24.118Z,62.67
2022-11-21T16:17:53.206Z,63.10
2022-11-21T16:20:21.523Z,62.74
2022-11-21T16:22:53.067Z,64.24
2022-11-21T16:25:21.688Z,63.00
2022-11-21T16:27:50.079Z,62.49
2022-11-21T16:30:19.036Z,63.65
2022-11-21T16:32:47.231Z,63.06
2022-11-21T16:35:15.791Z,62.05
2022-11-21T16:37:44.127Z,61.61
2022-11-21T16:40:14.022Z,63.55
2022-11-21T16:42:43.987Z,63.95
2022-11-21T16:45:12.378Z,64.14
2022-11-21T16:47:44.375Z,64.14
2022-11-21T16:50:16.860Z,65.95
2022-11-21T16:52:45.132Z,66.94
2022-11-21T16:55:14.950Z,69.33
2022-11-21T16:57:43.588Z,68.24
2022-11-21T17:00:13.786Z,68.56
2022-11-21T17:02:42.193Z,68.24
2022-11-21T17:05:11.086Z,68.90
2022-11-21T17:07:39.382Z,67.26
2022-11-21T17:10:08.576Z,66.51
2022-11-21T17:12:39.135Z,65.92
2022-11-21T17:15:09.374Z,67.92
2022-11-21T17:17:37.742Z,68.36
2022-11-21T17:20:07.772Z,63.20
2022-11-21T17:22:36.285Z,65.60
2022-11-21T17:25:04.588Z,69.44
2022-11-21T17:27:32.877Z,73.79
2022-11-21T17:30:02.558Z,70.10
2022-11-21T17:32:30.737Z,76.51
2022-11-21T17:34:59.030Z,71.90
2022-11-21T17:37:27.191Z,75.20
2022-11-21T17:39:55.408Z,75.64
2022-11-21T17:42:24.151Z,74.83
2022-11-21T17:47:40.412Z,77.00
2022-11-21T17:50:09.793Z,76.93
2022-11-21T17:52:38.803Z,75.71
2022-11-21T17:55:07.571Z,77.52
2022-11-21T17:57:35.761Z,76.66
2022-11-21T18:00:04.873Z,76.50
2022-11-21T18:02:33.375Z,75.38
2022-11-21T18:05:03.126Z,72.93
2022-11-21T18:07:31.373Z,74.46
2022-11-21T18:10:20.541Z,72.82
2022-11-21T18:12:47.854Z,72.99
2022-11-21T18:15:16.229Z,65.35
2022-11-21T18:17:44.493Z,66.15
2022-11-21T18:20:14.479Z,65.24
2022-11-21T18:22:43.339Z,63.93
2022-11-21T18:25:11.555Z,65.73
2022-11-21T18:27:39.786Z,64.72
2022-11-21T18:30:09.297Z,65.59
2022-11-21T18:32:37.568Z,65.73
2022-11-21T18:35:06.189Z,66.36
2022-11-21T18:37:36.646Z,66.93
2022-11-21T18:40:05.343Z,66.75
2022-11-21T18:42:33.998Z,66.94
2022-11-21T18:45:02.256Z,66.11
2022-11-21T18:47:30.472Z,65.67
2022-11-21T18:49:59.140Z,64.04
2022-11-21T18:52:27.848Z,63.32
2022-11-21T18:54:57.643Z,63.37
2022-11-21T18:57:26.106Z,62.38
2022-11-21T18:59:54.407Z,62.11
2022-11-21T19:02:22.616Z,62.53
2022-11-21T19:04:50.942Z,62.07
2022-11-21T19:07:19.244Z,61.93
2022-11-21T19:09:47.740Z,61.13
2022-11-21T19:12:17.899Z,60.14
2022-11-21T19:14:46.297Z,59.77
2022-11-21T19:17:14.551Z,60.66
2022-11-21T19:19:43.024Z,59.94
2022-11-21T19:22:11.444Z,60.51
2022-11-21T19:24:39.714Z,61.32
2022-11-21T19:27:08.583Z,62.19
2022-11-21T19:29:38.255Z,59.37
2022-11-21T19:32:06.622Z,62.57
2022-11-21T19:34:34.820Z,59.36
2022-11-21T19:37:03.055Z,59.49
2022-11-21T19:39:31.687Z,60.01
2022-11-21T19:42:00.209Z,59.66
2022-11-21T19:44:28.474Z,59.51
2022-11-21T19:46:58.169Z,60.32
2022-11-21T19:49:26.782Z,60.47
2022-11-21T19:51:55.662Z,60.58
2022-11-21T19:54:24.073Z,61.06
2022-11-21T19:56:52.426Z,61.04
2022-11-21T19:59:21.906Z,61.56
2022-11-21T20:01:52.836Z,63.14
2022-11-21T20:04:22.911Z,61.94
2022-11-21T20:06:51.547Z,62.61
2022-11-21T20:09:21.787Z,62.73
2022-11-21T20:11:52.726Z,63.07
2022-11-21T20:14:22.634Z,64.51
2022-11-21T20:16:53.331Z,63.04
2022-11-21T20:19:25.285Z,64.57
2022-11-21T20:21:54.200Z,63.60
2022-11-21T20:24:22.572Z,69.32
2022-11-21T20:26:50.750Z,63.17
2022-11-21T20:29:19.102Z,62.68
2022-11-21T20:31:48.498Z,62.48
2022-11-21T20:37:04.763Z,62.83
2022-11-21T20:39:33.093Z,63.12
2022-11-21T20:42:01.881Z,64.07
2022-11-21T20:47:19.446Z,65.34
2022-11-21T20:49:47.614Z,65.14
2022-11-21T20:53:49.706Z,64.82
2022-11-21T20:55:06.338Z,65.63
2022-11-21T20:57:34.736Z,63.98
2022-11-21T21:00:02.998Z,63.68
2022-11-21T21:02:31.287Z,64.14
2022-11-21T21:04:59.516Z,64.20
2022-11-21T21:07:29.209Z,64.38
2022-11-21T21:09:58.954Z,64.83
2022-11-21T21:12:27.654Z,64.97
2022-11-21T21:14:55.926Z,64.40
2022-11-21T21:17:24.151Z,64.98
2022-11-21T21:19:52.384Z,64.78
2022-11-21T21:22:20.868Z,63.51
2022-11-21T21:24:50.604Z,66.11
2022-11-21T21:27:18.825Z,66.59
2022-11-21T21:29:47.101Z,68.77
2022-11-21T21:32:15.266Z,68.37
2022-11-21T21:34:43.454Z,67.64
2022-11-21T21:37:11.658Z,67.51
2022-11-21T21:39:39.899Z,67.52
2022-11-21T21:42:09.521Z,68.37
2022-11-21T21:44:38.275Z,69.12
2022-11-21T21:47:07.319Z,71.04
2022-11-21T21:49:35.537Z,71.04
2022-11-21T21:52:03.763Z,71.61
2022-11-21T21:54:32.286Z,72.15
2022-11-21T21:57:01.621Z,73.73
2022-11-21T21:59:33.118Z,72.23
2022-11-21T22:02:01.611Z,73.40
2022-11-21T22:04:31.153Z,74.41
2022-11-21T22:07:00.447Z,74.46
2022-11-21T22:09:28.853Z,76.85
2022-11-21T22:11:57.245Z,75.74
2022-11-21T22:14:25.494Z,76.55
2022-11-21T22:16:55.104Z,78.13
2022-11-21T22:19:23.559Z,77.66
2022-11-21T22:21:51.943Z,78.31
2022-11-21T22:24:27.829Z,80.59
2022-11-21T22:26:56.382Z,81.75
2022-11-21T22:29:24.616Z,84.59
2022-11-21T22:31:54.378Z,84.07
2022-11-21T22:34:23.057Z,86.64
2022-11-21T22:36:51.398Z,84.79
2022-11-21T22:39:20.298Z,80.88
2022-11-21T22:41:48.633Z,81.45
2022-11-21T22:44:17.297Z,86.72
2022-11-21T22:46:45.515Z,87.28
2022-11-21T22:49:15.578Z,96.73
2022-11-21T22:51:45.300Z,87.93
2022-11-21T22:54:32.206Z,88.51
2022-11-21T22:57:00.520Z,93.14
2022-11-21T22:59:28.712Z,89.64
2022-11-21T23:01:56.957Z,93.97
2022-11-21T23:04:26.651Z,91.02
2022-11-21T23:06:54.874Z,88.70
2022-11-21T23:09:23.261Z,88.63
2022-11-21T23:11:51.536Z,88.74
2022-11-21T23:14:20.005Z,90.83
2022-11-21T23:16:48.375Z,92.69
2022-11-21T23:19:16.890Z,92.18
2022-11-21T23:21:46.554Z,99.09
2022-11-21T23:24:14.756Z,90.88
2022-11-21T23:26:42.955Z,88.80
2022-11-21T23:29:11.202Z,93.87
2022-11-21T23:31:39.434Z,93.14
2022-11-21T23:34:11.141Z,94.67
2022-11-21T23:36:57.779Z,95.00
2022-11-21T23:39:27.723Z,95.19
2022-11-21T23:41:56.115Z,91.64
2022-11-21T23:44:24.358Z,91.03
2022-11-21T23:46:52.610Z,89.97
2022-11-21T23:49:20.887Z,92.38
2022-11-21T23:51:49.201Z,86.97
2022-11-21T23:54:17.387Z,92.91
2022-11-21T23:56:47.057Z,90.80
2022-11-21T23:59:15.337Z,89.22
